createdAt,value
2018-07-06T00:00:57.971Z,123.20
2018-07-06T00:01:58.027Z,126.90
2018-07-06T00:02:58.082Z,121.10
2018-07-06T00:03:58.110Z,123.40
2018-07-06T00:04:58.311Z,117.90
2018-07-06T00:05:58.210Z,133.40
2018-07-06T00:06:58.243Z,123.20
2018-07-06T00:07:58.302Z,120.50
2018-07-06T00:08:58.376Z,130.40
2018-07-06T00:09:58.420Z,124.80
2018-07-06T00:10:58.511Z,114.30
2018-07-06T00:11:58.518Z,123.50
2018-07-06T00:12:58.518Z,112.70
2018-07-06T00:13:58.570Z,110.70
2018-07-06T00:14:58.897Z,116.90
2018-07-06T00:15:58.675Z,129.50
2018-07-06T00:16:58.711Z,127.90
2018-07-06T00:17:58.770Z,115.60
2018-07-06T00:18:58.813Z,112.40
2018-07-06T00:19:59.081Z,131.40
2018-07-06T00:20:58.898Z,115.70
2018-07-06T00:21:58.952Z,134.80
2018-07-06T00:22:58.980Z,133.50
2018-07-06T00:23:59.038Z,139.10
2018-07-06T00:24:59.138Z,144.20
2018-07-06T00:25:59.339Z,154.80
2018-07-06T00:26:59.194Z,156.10
2018-07-06T00:27:59.224Z,149.20
2018-07-06T00:28:59.288Z,189.70
2018-07-06T00:29:59.340Z,174.60
2018-07-06T00:30:59.377Z,164.50
2018-07-06T00:31:59.403Z,175.70
2018-07-06T00:32:59.464Z,184.10
2018-07-06T00:33:59.495Z,169.60
2018-07-06T00:34:59.536Z,180.50
2018-07-06T00:35:59.764Z,166.80
2018-07-06T00:36:59.639Z,168.20
2018-07-06T00:37:59.700Z,209.80
2018-07-06T00:38:59.723Z,231.30
2018-07-06T00:39:59.784Z,216.80
2018-07-06T00:40:59.827Z,190.10
2018-07-06T00:42:00.061Z,188.10
2018-07-06T00:42:59.903Z,200.80
2018-07-06T00:43:59.974Z,218.90
2018-07-06T00:45:00.002Z,209.30
2018-07-06T00:46:00.046Z,179.40
2018-07-06T00:47:00.083Z,172.20
2018-07-06T00:48:00.318Z,191.60
2018-07-06T00:49:00.429Z,211.40
2018-07-06T00:50:00.243Z,219.00
2018-07-06T00:51:00.282Z,250.10
2018-07-06T00:52:00.340Z,228.10
2018-07-06T00:53:00.422Z,196.90
2018-07-06T00:54:00.415Z,220.30
2018-07-06T00:55:00.675Z,191.50
2018-07-06T00:56:00.507Z,224.00
2018-07-06T00:57:00.545Z,162.20
2018-07-06T00:58:00.582Z,174.60
2018-07-06T00:59:00.619Z,177.10
2018-07-06T01:00:00.693Z,173.00
2018-07-06T01:01:00.744Z,171.80
2018-07-06T01:02:00.963Z,176.90
2018-07-06T01:03:00.837Z,156.30
2018-07-06T01:04:00.881Z,204.50
2018-07-06T01:05:01.081Z,210.30
2018-07-06T01:06:00.959Z,174.10
2018-07-06T01:07:01.005Z,193.70
2018-07-06T01:08:01.093Z,200.70
2018-07-06T01:09:01.091Z,154.40
2018-07-06T01:10:01.399Z,206.40
2018-07-06T01:11:01.200Z,199.30
2018-07-06T01:12:01.238Z,218.90
2018-07-06T01:13:01.282Z,225.10
2018-07-06T01:14:01.338Z,224.90
2018-07-06T01:15:01.560Z,223.00
2018-07-06T01:16:01.399Z,246.20
2018-07-06T01:17:01.462Z,249.30
2018-07-06T01:18:01.491Z,234.70
2018-07-06T01:19:01.568Z,236.20
2018-07-06T01:20:01.609Z,222.10
2018-07-06T01:21:01.610Z,204.30
2018-07-06T01:22:01.646Z,205.70
2018-07-06T01:23:01.682Z,172.40
2018-07-06T01:24:01.747Z,162.60
2018-07-06T01:25:01.786Z,154.60
2018-07-06T01:26:01.925Z,156.10
2018-07-06T01:27:01.969Z,167.90
2018-07-06T01:28:01.917Z,180.40
2018-07-06T01:29:01.978Z,226.10
2018-07-06T01:30:02.015Z,234.30
2018-07-06T01:31:02.072Z,257.70
2018-07-06T01:32:02.210Z,254.30
2018-07-06T01:33:02.235Z,261.50
2018-07-06T01:34:02.203Z,263.80
2018-07-06T01:35:02.244Z,243.00
2018-07-06T01:36:02.288Z,253.50
2018-07-06T01:37:02.334Z,259.20
2018-07-06T01:38:02.480Z,250.20
2018-07-06T01:39:02.411Z,254.50
2018-07-06T01:40:02.472Z,252.10
2018-07-06T01:41:02.515Z,208.10
2018-07-06T01:42:02.559Z,208.20
2018-07-06T01:43:02.707Z,195.50
2018-07-06T01:44:02.672Z,209.60
2018-07-06T01:45:02.708Z,220.90
2018-07-06T01:46:02.823Z,215.30
2018-07-06T01:47:02.831Z,219.00
2018-07-06T01:48:02.870Z,210.20
2018-07-06T01:49:02.922Z,225.80
2018-07-06T01:50:02.949Z,237.10
2018-07-06T01:51:02.998Z,234.80
2018-07-06T01:52:03.049Z,228.20
2018-07-06T01:53:03.093Z,230.80
2018-07-06T01:54:03.287Z,216.40
2018-07-06T01:55:03.440Z,213.00
2018-07-06T01:56:03.224Z,194.30
2018-07-06T01:57:03.256Z,185.20
2018-07-06T01:58:03.308Z,174.70
2018-07-06T01:59:03.399Z,171.10
2018-07-06T02:00:03.406Z,164.40
2018-07-06T02:01:03.457Z,158.30
2018-07-06T02:02:03.496Z,153.00
2018-07-06T02:03:03.539Z,142.40
2018-07-06T02:04:03.584Z,131.90
2018-07-06T02:05:03.818Z,129.30
2018-07-06T02:06:03.655Z,126.50
2018-07-06T02:07:03.727Z,119.60
2018-07-06T02:08:03.753Z,136.00
2018-07-06T02:09:03.815Z,147.70
2018-07-06T02:10:03.843Z,141.10
2018-07-06T02:11:03.911Z,133.00
2018-07-06T02:12:03.956Z,128.80
2018-07-06T02:13:04.025Z,124.50
2018-07-06T02:14:04.034Z,140.90
2018-07-06T02:15:04.286Z,120.60
2018-07-06T02:16:04.148Z,112.70
2018-07-06T02:17:04.178Z,123.50
2018-07-06T02:18:04.235Z,128.60
2018-07-06T02:19:04.265Z,117.70
2018-07-06T02:20:04.310Z,110.10
2018-07-06T02:21:04.353Z,109.60
2018-07-06T02:22:04.392Z,102.90
2018-07-06T02:23:04.446Z,100.40
2018-07-06T02:24:04.498Z,106.90
2018-07-06T02:25:04.729Z,120.10
2018-07-06T02:26:04.578Z,139.70
2018-07-06T02:27:04.624Z,155.20
2018-07-06T02:28:04.656Z,158.50
2018-07-06T02:29:04.730Z,164.80
2018-07-06T02:30:04.927Z,170.50
2018-07-06T02:31:04.778Z,169.20
2018-07-06T02:32:04.839Z,170.90
2018-07-06T02:33:04.899Z,170.70
2018-07-06T02:34:04.979Z,175.30
2018-07-06T02:35:04.983Z,156.50
2018-07-06T02:36:05.233Z,172.80
2018-07-06T02:37:05.047Z,168.00
2018-07-06T02:38:05.165Z,156.20
2018-07-06T02:39:05.143Z,160.40
2018-07-06T02:40:05.240Z,165.50
2018-07-06T02:41:05.244Z,163.90
2018-07-06T02:42:05.487Z,178.70
2018-07-06T02:43:05.314Z,159.80
2018-07-06T02:44:05.379Z,161.40
2018-07-06T02:45:05.460Z,154.20
2018-07-06T02:46:05.475Z,157.00
2018-07-06T02:47:05.494Z,157.80
2018-07-06T02:48:05.565Z,159.50
2018-07-06T02:49:05.629Z,156.60
2018-07-06T02:50:05.657Z,155.00
2018-07-06T02:51:05.698Z,144.10
2018-07-06T02:52:05.886Z,160.00
2018-07-06T02:53:05.842Z,152.20
2018-07-06T02:54:05.830Z,174.50
2018-07-06T02:55:05.947Z,163.10
2018-07-06T02:56:05.933Z,153.40
2018-07-06T02:57:05.950Z,145.50
2018-07-06T02:58:06.013Z,150.80
2018-07-06T02:59:06.048Z,149.40
2018-07-06T03:00:06.149Z,157.50
2018-07-06T03:01:06.178Z,150.50
2018-07-06T03:02:06.179Z,155.00
2018-07-06T03:03:06.452Z,149.00
2018-07-06T03:04:06.260Z,157.50
2018-07-06T03:05:06.319Z,149.20
2018-07-06T03:06:06.348Z,163.00
2018-07-06T03:07:06.414Z,153.50
2018-07-06T03:08:06.464Z,161.70
2018-07-06T03:09:06.515Z,147.10
2018-07-06T03:10:06.741Z,147.90
2018-07-06T03:11:06.581Z,147.20
2018-07-06T03:12:06.634Z,144.70
2018-07-06T03:13:06.664Z,155.10
2018-07-06T03:14:06.715Z,153.80
2018-07-06T03:15:06.756Z,145.50
2018-07-06T03:16:07.011Z,142.60
2018-07-06T03:17:06.858Z,151.70
2018-07-06T03:18:06.874Z,146.70
2018-07-06T03:19:06.928Z,150.70
2018-07-06T03:20:06.987Z,147.80
2018-07-06T03:21:07.230Z,146.90
2018-07-06T03:22:07.067Z,146.80
2018-07-06T03:23:07.131Z,148.70
2018-07-06T03:24:07.164Z,141.10
2018-07-06T03:25:07.216Z,148.00
2018-07-06T03:26:07.277Z,155.20
2018-07-06T03:27:07.527Z,160.90
2018-07-06T03:28:07.425Z,141.30
2018-07-06T03:29:07.367Z,154.40
2018-07-06T03:30:07.438Z,149.80
2018-07-06T03:31:07.455Z,157.10
2018-07-06T03:32:07.535Z,151.20
2018-07-06T03:33:07.758Z,156.40
2018-07-06T03:34:07.591Z,154.10
2018-07-06T03:35:07.669Z,153.10
2018-07-06T03:36:07.704Z,158.80
2018-07-06T03:37:07.732Z,165.30
2018-07-06T03:38:07.836Z,153.40
2018-07-06T03:39:07.808Z,157.90
2018-07-06T03:40:08.031Z,149.30
2018-07-06T03:41:07.915Z,153.00
2018-07-06T03:42:07.967Z,153.10
2018-07-06T03:43:08.000Z,142.30
2018-07-06T03:44:08.050Z,153.80
2018-07-06T03:45:08.080Z,150.70
2018-07-06T03:46:08.112Z,163.30
2018-07-06T03:47:08.156Z,169.30
2018-07-06T03:48:08.280Z,154.20
2018-07-06T03:49:08.318Z,148.60
2018-07-06T03:50:08.555Z,146.60
2018-07-06T03:51:08.562Z,143.20
2018-07-06T03:52:08.417Z,139.30
2018-07-06T03:53:08.434Z,135.00
2018-07-06T03:54:08.494Z,136.50
2018-07-06T03:55:08.519Z,141.30
2018-07-06T03:56:08.588Z,130.80
2018-07-06T03:57:08.616Z,126.80
2018-07-06T03:58:08.649Z,122.30
2018-07-06T03:59:08.690Z,129.00
2018-07-06T04:00:08.748Z,134.20
2018-07-06T04:01:08.896Z,134.20
2018-07-06T04:02:09.047Z,150.10
2018-07-06T04:03:08.896Z,132.50
2018-07-06T04:04:08.940Z,136.60
2018-07-06T04:05:08.957Z,134.10
2018-07-06T04:06:09.014Z,135.00
2018-07-06T04:07:09.051Z,138.90
2018-07-06T04:08:09.087Z,146.80
2018-07-06T04:09:09.153Z,140.70
2018-07-06T04:10:09.196Z,150.60
2018-07-06T04:11:09.248Z,149.40
2018-07-06T04:12:09.425Z,146.90
2018-07-06T04:13:09.333Z,151.40
2018-07-06T04:14:09.368Z,147.40
2018-07-06T04:15:09.388Z,139.90
2018-07-06T04:16:09.488Z,142.90
2018-07-06T04:17:09.498Z,142.90
2018-07-06T04:18:09.524Z,143.80
2018-07-06T04:19:09.736Z,142.90
2018-07-06T04:20:09.611Z,147.10
2018-07-06T04:21:09.667Z,150.90
2018-07-06T04:22:09.719Z,148.30
2018-07-06T04:23:09.771Z,152.40
2018-07-06T04:24:09.792Z,152.20
2018-07-06T04:25:09.863Z,153.90
2018-07-06T04:26:09.909Z,153.90
2018-07-06T04:27:09.930Z,143.00
2018-07-06T04:28:10.024Z,143.40
2018-07-06T04:29:10.282Z,135.30
2018-07-06T04:30:10.049Z,136.60
2018-07-06T04:31:10.136Z,128.00
2018-07-06T04:32:10.175Z,124.40
2018-07-06T04:33:10.205Z,123.50
2018-07-06T04:34:10.378Z,115.80
2018-07-06T04:35:10.273Z,120.50
2018-07-06T04:36:10.331Z,116.40
2018-07-06T04:37:10.410Z,121.00
2018-07-06T04:38:10.466Z,119.20
2018-07-06T04:39:10.454Z,121.50
2018-07-06T04:40:10.510Z,129.40
2018-07-06T04:41:10.543Z,118.70
2018-07-06T04:42:10.612Z,116.10
2018-07-06T04:43:10.727Z,128.90
2018-07-06T04:44:10.958Z,129.80
2018-07-06T04:45:10.742Z,135.70
2018-07-06T04:46:10.756Z,132.70
2018-07-06T04:47:10.811Z,132.40
2018-07-06T04:48:10.885Z,131.00
2018-07-06T04:49:11.073Z,119.40
2018-07-06T04:50:10.951Z,123.80
2018-07-06T04:51:10.990Z,120.80
2018-07-06T04:52:11.028Z,121.60
2018-07-06T04:53:11.076Z,130.80
2018-07-06T04:54:11.122Z,133.10
2018-07-06T04:55:11.384Z,144.50
2018-07-06T04:56:11.225Z,153.00
2018-07-06T04:57:11.266Z,142.30
2018-07-06T04:58:11.357Z,136.60
2018-07-06T04:59:11.328Z,131.40
2018-07-06T05:00:11.374Z,129.00
2018-07-06T05:01:11.630Z,128.80
2018-07-06T05:02:11.474Z,152.70
2018-07-06T05:03:11.502Z,156.00
2018-07-06T05:04:11.552Z,144.90
2018-07-06T05:05:11.659Z,134.80
2018-07-06T05:06:11.670Z,144.70
2018-07-06T05:07:11.683Z,137.90
2018-07-06T05:08:11.751Z,140.30
2018-07-06T05:09:11.784Z,131.50
2018-07-06T05:10:11.815Z,130.30
2018-07-06T05:11:12.075Z,139.00
2018-07-06T05:12:12.122Z,140.50
2018-07-06T05:13:11.938Z,138.90
2018-07-06T05:14:12.058Z,136.40
2018-07-06T05:15:12.040Z,148.00
2018-07-06T05:16:12.100Z,140.90
2018-07-06T05:17:12.124Z,138.30
2018-07-06T05:18:12.169Z,131.20
2018-07-06T05:19:12.218Z,137.00
2018-07-06T05:20:12.284Z,139.20
2018-07-06T05:21:12.299Z,130.50
2018-07-06T05:22:12.354Z,130.10
2018-07-06T05:23:12.587Z,128.30
2018-07-06T05:24:12.595Z,133.10
2018-07-06T05:25:12.474Z,133.00
2018-07-06T05:26:12.506Z,120.30
2018-07-06T05:27:12.562Z,118.60
2018-07-06T05:28:12.613Z,118.40
2018-07-06T05:29:12.657Z,116.40
2018-07-06T05:30:12.904Z,122.20
2018-07-06T05:31:12.756Z,121.30
2018-07-06T05:32:12.794Z,135.50
2018-07-06T05:33:12.824Z,130.40
2018-07-06T05:34:12.852Z,126.60
2018-07-06T05:35:13.070Z,117.90
2018-07-06T05:36:12.959Z,124.20
2018-07-06T05:37:13.025Z,131.40
2018-07-06T05:38:13.054Z,126.70
2018-07-06T05:39:13.085Z,129.40
2018-07-06T05:40:13.114Z,116.40
2018-07-06T05:41:13.375Z,116.90
2018-07-06T05:42:13.219Z,113.30
2018-07-06T05:43:13.274Z,117.10
2018-07-06T05:44:13.303Z,117.20
2018-07-06T05:45:13.361Z,121.40
2018-07-06T05:46:13.381Z,117.40
2018-07-06T05:47:13.625Z,116.40
2018-07-06T05:48:13.450Z,125.00
2018-07-06T05:49:13.512Z,120.90
2018-07-06T05:50:13.546Z,110.80
2018-07-06T05:51:13.607Z,107.10
2018-07-06T05:52:13.666Z,108.10
2018-07-06T05:53:13.915Z,106.70
2018-07-06T05:54:13.743Z,101.50
2018-07-06T05:55:13.771Z,102.30
2018-07-06T05:56:13.835Z,96.10
2018-07-06T05:57:13.858Z,97.70
2018-07-06T05:58:13.924Z,97.30
2018-07-06T05:59:14.174Z,96.20
2018-07-06T06:00:13.983Z,92.10
2018-07-06T06:01:14.037Z,90.30
2018-07-06T06:02:14.068Z,87.30
2018-07-06T06:03:14.145Z,92.70
2018-07-06T06:04:14.181Z,90.10
2018-07-06T06:05:14.434Z,92.80
2018-07-06T06:06:14.267Z,86.20
2018-07-06T06:07:14.302Z,83.10
2018-07-06T06:08:14.349Z,80.60
2018-07-06T06:09:14.382Z,84.70
2018-07-06T06:10:14.457Z,79.10
2018-07-06T06:11:14.611Z,81.10
2018-07-06T06:12:14.527Z,81.90
2018-07-06T06:13:14.580Z,89.70
2018-07-06T06:14:14.611Z,87.70
2018-07-06T06:15:14.645Z,86.00
2018-07-06T06:16:14.694Z,92.30
2018-07-06T06:17:14.924Z,89.00
2018-07-06T06:18:14.784Z,86.90
2018-07-06T06:19:14.829Z,84.30
2018-07-06T06:20:14.859Z,81.30
2018-07-06T06:21:14.902Z,82.70
2018-07-06T06:22:14.976Z,82.10
2018-07-06T06:23:15.008Z,81.80
2018-07-06T06:24:15.050Z,83.70
2018-07-06T06:25:15.067Z,86.30
2018-07-06T06:26:15.142Z,88.30
2018-07-06T06:27:15.371Z,84.70
2018-07-06T06:28:15.233Z,80.50
2018-07-06T06:29:15.275Z,79.90
2018-07-06T06:30:15.299Z,80.70
2018-07-06T06:31:15.357Z,83.70
2018-07-06T06:32:15.662Z,86.60
2018-07-06T06:33:15.508Z,80.90
2018-07-06T06:34:15.501Z,89.30
2018-07-06T06:35:15.527Z,88.80
2018-07-06T06:36:15.592Z,88.90
2018-07-06T06:37:15.616Z,82.50
2018-07-06T06:38:15.674Z,79.80
2018-07-06T06:39:15.689Z,81.90
2018-07-06T06:40:15.750Z,85.20
2018-07-06T06:41:15.783Z,88.10
2018-07-06T06:42:15.982Z,86.90
2018-07-06T06:43:15.873Z,82.70
2018-07-06T06:44:15.935Z,105.60
2018-07-06T06:45:15.962Z,100.40
2018-07-06T06:46:16.019Z,101.80
2018-07-06T06:47:16.246Z,103.00
2018-07-06T06:48:16.093Z,97.70
2018-07-06T06:49:16.152Z,97.80
2018-07-06T06:50:16.206Z,108.00
2018-07-06T06:51:16.211Z,102.00
2018-07-06T06:52:16.364Z,97.50
2018-07-06T06:53:16.308Z,91.70
2018-07-06T06:54:16.340Z,104.60
2018-07-06T06:55:16.363Z,96.90
2018-07-06T06:56:16.431Z,93.50
2018-07-06T06:57:16.672Z,89.90
2018-07-06T06:58:16.781Z,90.20
2018-07-06T06:59:16.576Z,88.30
2018-07-06T07:00:21.055Z,97.30
2018-07-06T07:01:16.652Z,104.00
2018-07-06T07:02:16.700Z,94.20
2018-07-06T07:03:16.746Z,107.20
2018-07-06T07:04:17.009Z,100.10
2018-07-06T07:05:16.822Z,97.90
2018-07-06T07:06:16.880Z,105.80
2018-07-06T07:07:16.968Z,110.60
2018-07-06T07:08:16.977Z,109.00
2018-07-06T07:09:17.250Z,94.70
2018-07-06T07:10:17.049Z,101.70
2018-07-06T07:11:17.100Z,92.50
2018-07-06T07:12:17.134Z,95.60
2018-07-06T07:13:17.153Z,145.10
2018-07-06T07:14:17.237Z,171.90
2018-07-06T07:15:17.408Z,206.60
2018-07-06T07:16:17.299Z,213.60
2018-07-06T07:17:17.358Z,190.10
2018-07-06T07:18:17.388Z,208.10
2018-07-06T07:19:17.429Z,216.40
2018-07-06T07:20:17.472Z,231.90
2018-07-06T07:21:17.733Z,200.50
2018-07-06T07:22:17.546Z,234.50
2018-07-06T07:23:17.610Z,238.50
2018-07-06T07:24:17.654Z,250.70
2018-07-06T07:25:17.714Z,243.50
2018-07-06T07:26:17.740Z,194.20
2018-07-06T07:27:17.773Z,206.60
2018-07-06T07:28:17.831Z,200.80
2018-07-06T07:29:17.882Z,195.20
2018-07-06T07:30:17.917Z,243.90
2018-07-06T07:31:18.103Z,249.00
2018-07-06T07:32:18.033Z,311.10
2018-07-06T07:33:18.045Z,335.10
2018-07-06T07:34:18.096Z,327.00
2018-07-06T07:35:18.123Z,332.60
2018-07-06T07:36:18.374Z,329.60
2018-07-06T07:37:18.239Z,326.50
2018-07-06T07:38:18.263Z,390.90
2018-07-06T07:39:18.282Z,388.70
2018-07-06T07:40:18.369Z,374.10
2018-07-06T07:41:18.379Z,366.90
2018-07-06T07:42:18.428Z,372.60
2018-07-06T07:43:18.507Z,376.20
2018-07-06T07:44:18.521Z,362.00
2018-07-06T07:45:18.577Z,361.60
2018-07-06T07:46:18.810Z,347.20
2018-07-06T07:47:18.862Z,252.70
2018-07-06T07:48:18.680Z,247.40
2018-07-06T07:49:18.743Z,324.80
2018-07-06T07:50:18.796Z,351.70
2018-07-06T07:51:18.839Z,346.80
2018-07-06T07:52:18.863Z,370.20
2018-07-06T07:53:18.903Z,366.30
2018-07-06T07:54:18.975Z,364.50
2018-07-06T07:55:19.004Z,357.60
2018-07-06T07:56:19.016Z,316.40
2018-07-06T07:57:19.289Z,270.50
2018-07-06T07:58:19.135Z,208.00
2018-07-06T07:59:19.188Z,167.30
2018-07-06T08:00:19.238Z,157.30
2018-07-06T08:01:19.422Z,149.60
2018-07-06T08:02:19.560Z,146.80
2018-07-06T08:03:19.348Z,157.90
2018-07-06T08:04:19.403Z,172.30
2018-07-06T08:05:19.425Z,197.60
2018-07-06T08:06:19.482Z,190.60
2018-07-06T08:07:19.531Z,201.50
2018-07-06T08:08:19.683Z,210.00
2018-07-06T08:09:19.620Z,202.30
2018-07-06T08:10:19.656Z,179.80
2018-07-06T08:11:19.692Z,213.70
2018-07-06T08:12:19.743Z,211.90
2018-07-06T08:13:19.752Z,250.20
2018-07-06T08:14:20.063Z,294.30
2018-07-06T08:15:19.849Z,250.20
2018-07-06T08:16:19.904Z,303.70
2018-07-06T08:17:19.932Z,308.10
2018-07-06T08:18:20.016Z,331.40
2018-07-06T08:19:20.053Z,343.30
2018-07-06T08:20:20.299Z,332.20
2018-07-06T08:21:20.117Z,325.80
2018-07-06T08:22:20.163Z,319.60
2018-07-06T08:23:20.186Z,309.00
2018-07-06T08:24:20.242Z,337.40
2018-07-06T08:25:20.527Z,355.10
2018-07-06T08:26:20.335Z,348.70
2018-07-06T08:27:20.381Z,340.80
2018-07-06T08:28:20.415Z,330.70
2018-07-06T08:29:20.475Z,320.90
2018-07-06T08:30:20.528Z,299.10
2018-07-06T08:31:20.762Z,288.70
2018-07-06T08:32:20.608Z,283.50
2018-07-06T08:33:20.628Z,298.30
2018-07-06T08:34:20.666Z,278.00
2018-07-06T08:35:20.712Z,261.20
2018-07-06T08:36:20.755Z,263.10
2018-07-06T08:37:20.821Z,246.60
2018-07-06T08:38:21.048Z,251.80
2018-07-06T08:39:20.902Z,276.10
2018-07-06T08:40:20.939Z,255.80
2018-07-06T08:41:21.007Z,246.40
2018-07-06T08:42:21.030Z,261.20
2018-07-06T08:43:21.259Z,255.90
2018-07-06T08:44:21.101Z,235.40
2018-07-06T08:45:21.172Z,233.80
2018-07-06T08:46:21.217Z,241.40
2018-07-06T08:47:21.217Z,244.20
2018-07-06T08:48:21.300Z,241.00
2018-07-06T08:49:21.524Z,230.90
2018-07-06T08:50:21.435Z,226.20
2018-07-06T08:51:21.423Z,225.70
2018-07-06T08:52:21.461Z,210.50
2018-07-06T08:53:21.487Z,228.40
2018-07-06T08:54:21.538Z,224.60
2018-07-06T08:55:21.799Z,224.80
2018-07-06T08:56:21.625Z,237.70
2018-07-06T08:57:21.674Z,216.20
2018-07-06T08:58:21.766Z,214.00
2018-07-06T08:59:21.767Z,212.80
2018-07-06T09:00:21.808Z,219.90
2018-07-06T09:01:22.028Z,205.10
2018-07-06T09:02:21.882Z,196.50
2018-07-06T09:03:21.911Z,193.20
2018-07-06T09:04:22.154Z,186.50
2018-07-06T09:05:22.043Z,188.80
2018-07-06T09:06:22.247Z,177.30
2018-07-06T09:07:22.109Z,177.10
2018-07-06T09:08:22.143Z,165.80
2018-07-06T09:09:22.230Z,172.20
2018-07-06T09:10:22.230Z,168.20
2018-07-06T09:11:22.297Z,161.50
2018-07-06T09:12:22.544Z,171.20
2018-07-06T09:13:22.341Z,176.90
2018-07-06T09:14:22.402Z,160.20
2018-07-06T09:15:22.466Z,146.50
2018-07-06T09:16:22.592Z,144.50
2018-07-06T09:17:22.535Z,146.10
2018-07-06T09:18:22.574Z,147.70
2018-07-06T09:19:22.901Z,136.20
2018-07-06T09:20:22.638Z,140.60
2018-07-06T09:21:22.695Z,142.50
2018-07-06T09:22:22.721Z,150.00
2018-07-06T09:23:22.802Z,140.50
2018-07-06T09:24:23.048Z,142.20
2018-07-06T09:25:22.955Z,139.30
2018-07-06T09:26:22.973Z,138.30
2018-07-06T09:27:22.949Z,138.00
2018-07-06T09:28:23.007Z,138.00
2018-07-06T09:29:23.017Z,150.80
2018-07-06T09:30:23.500Z,144.10
2018-07-06T09:31:23.125Z,140.60
2018-07-06T09:32:23.164Z,144.40
2018-07-06T09:33:23.217Z,145.60
2018-07-06T09:34:23.493Z,149.80
2018-07-06T09:35:23.482Z,140.20
2018-07-06T09:36:23.495Z,143.60
2018-07-06T09:37:23.542Z,137.20
2018-07-06T09:38:23.453Z,144.60
2018-07-06T09:39:23.498Z,139.20
2018-07-06T09:40:23.546Z,139.10
2018-07-06T09:41:23.546Z,135.50
2018-07-06T09:42:23.795Z,132.00
2018-07-06T09:43:23.687Z,141.50
2018-07-06T09:44:23.672Z,137.10
2018-07-06T09:45:23.730Z,139.00
2018-07-06T09:46:23.786Z,141.90
2018-07-06T09:47:23.810Z,140.80
2018-07-06T09:48:24.006Z,145.70
2018-07-06T09:49:23.915Z,141.60
2018-07-06T09:50:23.933Z,148.50
2018-07-06T09:51:23.985Z,145.30
2018-07-06T09:52:24.029Z,151.00
2018-07-06T09:53:24.065Z,154.70
2018-07-06T09:54:24.102Z,151.70
2018-07-06T09:55:24.160Z,155.90
2018-07-06T09:56:24.197Z,153.10
2018-07-06T09:57:24.247Z,154.00
2018-07-06T09:58:24.467Z,170.20
2018-07-06T09:59:24.342Z,181.70
2018-07-06T10:00:24.396Z,187.00
2018-07-06T10:01:24.408Z,180.50
2018-07-06T10:02:24.480Z,188.50
2018-07-06T10:03:24.718Z,196.30
2018-07-06T10:04:24.619Z,202.50
2018-07-06T10:05:24.583Z,203.20
2018-07-06T10:06:24.627Z,205.60
2018-07-06T10:07:24.671Z,230.90
2018-07-06T10:08:24.694Z,245.00
2018-07-06T10:09:24.958Z,236.90
2018-07-06T10:10:24.798Z,251.50
2018-07-06T10:11:24.841Z,234.90
2018-07-06T10:12:24.876Z,208.80
2018-07-06T10:13:24.917Z,166.30
2018-07-06T10:14:24.967Z,149.40
2018-07-06T10:15:25.185Z,127.10
2018-07-06T10:16:25.039Z,136.90
2018-07-06T10:17:25.081Z,121.50
2018-07-06T10:18:25.146Z,127.50
2018-07-06T10:19:25.209Z,116.50
2018-07-06T10:20:25.248Z,114.30
2018-07-06T10:21:25.285Z,110.10
2018-07-06T10:22:25.339Z,109.00
2018-07-06T10:23:25.352Z,110.90
2018-07-06T10:24:25.407Z,117.00
2018-07-06T10:25:25.656Z,113.60
2018-07-06T10:26:25.713Z,108.00
2018-07-06T10:27:25.550Z,112.60
2018-07-06T10:28:25.580Z,109.10
2018-07-06T10:29:25.629Z,109.00
2018-07-06T10:30:25.657Z,108.10
2018-07-06T10:31:25.722Z,121.50
2018-07-06T10:32:25.774Z,121.20
2018-07-06T10:33:25.837Z,130.00
2018-07-06T10:34:25.842Z,133.00
2018-07-06T10:35:25.907Z,171.60
2018-07-06T10:36:26.119Z,166.30
2018-07-06T10:37:25.978Z,178.00
2018-07-06T10:38:26.022Z,203.70
2018-07-06T10:39:26.098Z,215.00
2018-07-06T10:40:26.093Z,187.30
2018-07-06T10:41:26.358Z,189.70
2018-07-06T10:42:26.195Z,212.90
2018-07-06T10:43:26.230Z,218.90
2018-07-06T10:44:26.294Z,226.80
2018-07-06T10:45:26.318Z,225.00
2018-07-06T10:46:26.388Z,231.10
2018-07-06T10:47:26.436Z,217.50
2018-07-06T10:48:26.457Z,230.90
2018-07-06T10:49:26.534Z,227.40
2018-07-06T10:50:26.567Z,230.90
2018-07-06T10:51:26.606Z,235.00
2018-07-06T10:52:26.842Z,213.50
2018-07-06T10:53:26.696Z,191.90
2018-07-06T10:54:26.717Z,196.90
2018-07-06T10:55:26.790Z,154.60
2018-07-06T10:56:26.837Z,125.70
2018-07-06T10:57:27.053Z,126.70
2018-07-06T10:58:26.923Z,127.30
2018-07-06T10:59:27.051Z,137.90
2018-07-06T11:00:27.009Z,123.30
2018-07-06T11:01:27.054Z,139.00
2018-07-06T11:02:27.085Z,95.30
2018-07-06T11:03:27.311Z,94.50
2018-07-06T11:04:27.160Z,86.00
2018-07-06T11:05:27.247Z,87.20
2018-07-06T11:06:27.260Z,83.70
2018-07-06T11:07:27.307Z,84.00
2018-07-06T11:08:27.372Z,83.10
2018-07-06T11:09:27.408Z,84.60
2018-07-06T11:10:27.629Z,82.30
2018-07-06T11:11:27.508Z,81.00
2018-07-06T11:12:27.543Z,85.00
2018-07-06T11:13:27.607Z,80.40
2018-07-06T11:14:27.640Z,82.30
2018-07-06T11:15:27.671Z,83.10
2018-07-06T11:16:27.867Z,83.10
2018-07-06T11:17:27.777Z,84.00
2018-07-06T11:18:27.798Z,78.90
2018-07-06T11:19:27.875Z,80.30
2018-07-06T11:20:27.892Z,78.70
2018-07-06T11:21:27.968Z,78.90
2018-07-06T11:22:28.210Z,75.50
2018-07-06T11:23:28.560Z,78.60
2018-07-06T11:24:28.075Z,77.30
2018-07-06T11:25:28.162Z,77.30
2018-07-06T11:26:28.178Z,67.50
2018-07-06T11:27:28.193Z,80.80
2018-07-06T11:28:28.292Z,78.50
2018-07-06T11:29:28.332Z,78.50
2018-07-06T11:30:28.337Z,82.80
2018-07-06T11:31:28.395Z,78.20
2018-07-06T11:32:28.426Z,76.70
2018-07-06T11:33:28.473Z,78.80
2018-07-06T11:34:28.565Z,82.60
2018-07-06T11:35:28.588Z,77.70
2018-07-06T11:36:28.629Z,70.70
2018-07-06T11:37:28.865Z,57.00
2018-07-06T11:38:28.721Z,55.80
2018-07-06T11:39:28.785Z,54.90
2018-07-06T11:40:28.830Z,54.60
2018-07-06T11:41:28.871Z,55.30
2018-07-06T11:42:28.905Z,83.90
2018-07-06T11:43:29.163Z,78.90
2018-07-06T11:44:29.022Z,75.90
2018-07-06T11:45:29.040Z,74.60
2018-07-06T11:46:29.106Z,84.60
2018-07-06T11:47:29.162Z,85.50
2018-07-06T11:48:29.206Z,89.10
2018-07-06T11:49:29.492Z,90.40
2018-07-06T11:50:29.289Z,73.00
2018-07-06T11:51:29.334Z,75.00
2018-07-06T11:52:29.382Z,86.60
2018-07-06T11:53:29.444Z,84.20
2018-07-06T11:54:29.496Z,86.00
2018-07-06T11:55:29.682Z,90.90
2018-07-06T11:56:29.580Z,76.50
2018-07-06T11:57:29.648Z,63.60
2018-07-06T11:58:29.689Z,57.10
2018-07-06T11:59:29.722Z,50.60
2018-07-06T12:00:29.782Z,52.60
2018-07-06T12:01:29.811Z,55.90
2018-07-06T12:02:29.875Z,58.80
2018-07-06T12:03:29.906Z,59.10
2018-07-06T12:04:30.029Z,59.70
2018-07-06T12:05:30.150Z,60.60
2018-07-06T12:06:30.065Z,60.80
2018-07-06T12:07:30.122Z,65.20
2018-07-06T12:08:30.168Z,67.90
2018-07-06T12:09:30.195Z,67.20
2018-07-06T12:10:30.252Z,73.20
2018-07-06T12:11:30.498Z,73.90
2018-07-06T12:12:30.343Z,78.40
2018-07-06T12:13:30.395Z,78.00
2018-07-06T12:14:30.461Z,81.60
2018-07-06T12:15:30.545Z,76.70
2018-07-06T12:16:30.740Z,68.20
2018-07-06T12:17:30.590Z,70.80
2018-07-06T12:18:30.624Z,60.60
2018-07-06T12:19:30.682Z,57.00
2018-07-06T12:20:30.738Z,55.20
2018-07-06T12:21:30.856Z,56.80
2018-07-06T12:22:30.835Z,59.10
2018-07-06T12:23:31.111Z,60.00
2018-07-06T12:24:30.932Z,58.90
2018-07-06T12:25:31.004Z,62.00
2018-07-06T12:26:31.032Z,65.10
2018-07-06T12:27:31.066Z,66.00
2018-07-06T12:28:31.154Z,67.20
2018-07-06T12:29:31.384Z,64.60
2018-07-06T12:30:31.235Z,61.00
2018-07-06T12:31:31.299Z,56.50
2018-07-06T12:32:31.345Z,54.50
2018-07-06T12:33:31.396Z,55.90
2018-07-06T12:34:31.451Z,59.70